createdAt,value
2019-06-15T00:01:09.995Z,1.67
2019-06-15T00:03:36.888Z,1.40
2019-06-15T00:06:03.946Z,1.77
2019-06-15T00:08:30.746Z,1.30
2019-06-15T00:10:57.566Z,1.60
2019-06-15T00:13:24.386Z,1.37
2019-06-15T00:15:51.161Z,1.67
2019-06-15T00:18:17.948Z,1.23
2019-06-15T00:20:44.871Z,1.10
2019-06-15T00:23:11.683Z,1.73
2019-06-15T00:25:38.469Z,1.20
2019-06-15T00:28:05.316Z,1.20
2019-06-15T00:30:32.110Z,1.10
2019-06-15T00:32:58.907Z,1.20
2019-06-15T00:35:25.926Z,1.60
2019-06-15T00:37:52.721Z,1.10
2019-06-15T00:40:19.711Z,1.20
2019-06-15T00:42:46.742Z,1.17
2019-06-15T00:45:13.792Z,1.10
2019-06-15T00:47:40.723Z,1.20
2019-06-15T00:50:07.745Z,1.30
2019-06-15T00:52:34.646Z,1.30
2019-06-15T00:55:01.573Z,1.17
2019-06-15T00:57:28.565Z,1.10
2019-06-15T00:59:55.353Z,1.20
2019-06-15T01:02:22.201Z,1.40
2019-06-15T01:04:49.099Z,1.10
2019-06-15T01:07:15.894Z,1.10
2019-06-15T01:09:42.719Z,1.30
2019-06-15T01:12:09.501Z,1.23
2019-06-15T01:14:36.295Z,1.40
2019-06-15T01:17:03.341Z,1.20
2019-06-15T01:19:30.447Z,1.40
2019-06-15T01:21:57.333Z,1.10
2019-06-15T01:24:24.154Z,1.23
2019-06-15T01:26:51.155Z,1.10
2019-06-15T01:29:17.937Z,1.20
2019-06-15T01:31:44.762Z,1.10
2019-06-15T01:34:11.557Z,1.17
2019-06-15T01:36:38.437Z,1.30
2019-06-15T01:39:05.603Z,1.20
2019-06-15T01:41:32.489Z,1.60
2019-06-15T01:43:59.294Z,1.60
2019-06-15T01:46:26.305Z,1.20
2019-06-15T01:48:53.097Z,1.27
2019-06-15T01:51:20.010Z,1.33
2019-06-15T01:53:46.790Z,1.37
2019-06-15T01:56:13.582Z,1.40
2019-06-15T01:58:40.414Z,1.37
2019-06-15T02:01:07.409Z,1.23
2019-06-15T02:03:34.415Z,1.27
2019-06-15T02:06:01.510Z,1.30
2019-06-15T02:08:28.305Z,1.37
2019-06-15T02:10:55.101Z,1.30
2019-06-15T02:13:21.990Z,1.30
2019-06-15T02:15:48.853Z,1.30
2019-06-15T02:18:15.847Z,1.40
2019-06-15T02:20:42.823Z,1.50
2019-06-15T02:23:09.705Z,1.50
2019-06-15T02:25:36.870Z,1.50
2019-06-15T02:28:03.955Z,1.53
2019-06-15T02:30:33.668Z,1.60
2019-06-15T02:33:00.800Z,1.70
2019-06-15T02:35:28.481Z,1.60
2019-06-15T02:37:55.671Z,1.50
2019-06-15T02:40:22.926Z,1.60
2019-06-15T02:42:49.925Z,1.70
2019-06-15T02:45:17.118Z,1.93
2019-06-15T02:47:44.134Z,1.70
2019-06-15T02:50:11.211Z,1.80
2019-06-15T02:52:38.192Z,2.00
2019-06-15T02:55:05.306Z,1.97
2019-06-15T02:57:32.203Z,2.00
2019-06-15T02:59:59.069Z,2.10
2019-06-15T03:02:25.929Z,1.87
2019-06-15T03:04:52.811Z,2.10
2019-06-15T03:07:19.694Z,1.93
2019-06-15T03:09:46.726Z,2.03
2019-06-15T03:12:13.613Z,2.00
2019-06-15T03:14:40.498Z,2.13
2019-06-15T03:17:07.430Z,2.50
2019-06-15T03:19:34.331Z,2.30
2019-06-15T03:22:01.234Z,1.87
2019-06-15T03:24:28.165Z,2.13
2019-06-15T03:26:54.964Z,2.10
2019-06-15T03:29:21.749Z,2.10
2019-06-15T03:31:48.551Z,1.90
2019-06-15T03:34:15.462Z,2.23
2019-06-15T03:36:42.301Z,2.10
2019-06-15T03:39:09.073Z,2.50
2019-06-15T03:41:35.970Z,2.50
2019-06-15T03:44:03.272Z,1.80
2019-06-15T03:46:30.226Z,2.30
2019-06-15T03:48:57.196Z,2.40
2019-06-15T03:51:24.206Z,2.27
2019-06-15T03:53:50.987Z,2.83
2019-06-15T03:56:21.922Z,2.83
2019-06-15T03:58:46.647Z,2.70
2019-06-15T04:01:20.990Z,2.50
2019-06-15T04:03:47.817Z,2.57
2019-06-15T04:06:14.606Z,2.97
2019-06-15T04:08:41.498Z,2.87
2019-06-15T04:11:08.414Z,2.60
2019-06-15T04:13:35.186Z,2.67
2019-06-15T04:16:02.172Z,2.80
2019-06-15T04:18:28.986Z,3.10
2019-06-15T04:20:55.761Z,2.70
2019-06-15T04:23:22.549Z,2.43
2019-06-15T04:25:49.452Z,2.40
2019-06-15T04:28:16.366Z,2.97
2019-06-15T04:30:43.137Z,2.80
2019-06-15T04:33:09.953Z,2.93
2019-06-15T04:35:36.744Z,2.87
2019-06-15T04:38:03.631Z,2.87
2019-06-15T04:40:30.454Z,2.90
2019-06-15T04:42:57.238Z,2.70
2019-06-15T04:45:24.029Z,3.17
2019-06-15T04:47:50.819Z,3.00
2019-06-15T04:50:17.706Z,3.10
2019-06-15T04:52:44.621Z,2.80
2019-06-15T04:55:11.593Z,3.10
2019-06-15T04:57:38.485Z,2.97
2019-06-15T05:00:07.205Z,3.17
2019-06-15T05:02:34.039Z,3.10
2019-06-15T05:05:00.997Z,3.13
2019-06-15T05:07:27.817Z,2.93
2019-06-15T05:09:54.594Z,3.27
2019-06-15T05:12:21.490Z,3.53
2019-06-15T05:14:48.448Z,3.30
2019-06-15T05:17:15.338Z,3.17
2019-06-15T05:19:42.122Z,3.23
2019-06-15T05:22:08.964Z,3.07
2019-06-15T05:24:35.883Z,2.77
2019-06-15T05:27:06.261Z,3.03
2019-06-15T05:29:31.572Z,3.03
2019-06-15T05:31:58.446Z,3.00
2019-06-15T05:34:25.238Z,3.23
2019-06-15T05:36:52.081Z,3.50
2019-06-15T05:39:18.871Z,3.17
2019-06-15T05:41:45.746Z,3.13
2019-06-15T05:44:12.564Z,3.20
2019-06-15T05:46:39.342Z,3.20
2019-06-15T05:49:06.141Z,3.47
2019-06-15T05:51:32.966Z,3.47
2019-06-15T05:53:59.757Z,3.40
2019-06-15T05:56:26.554Z,3.10
2019-06-15T05:58:53.370Z,3.27
2019-06-15T06:01:39.820Z,3.00
2019-06-15T06:04:06.895Z,3.60
2019-06-15T06:06:33.670Z,3.03
2019-06-15T06:09:00.469Z,3.20
2019-06-15T06:11:27.272Z,3.30
2019-06-15T06:13:54.248Z,3.10
2019-06-15T06:16:21.059Z,3.47
2019-06-15T06:18:48.062Z,3.53
2019-06-15T06:21:14.896Z,3.70
2019-06-15T06:23:41.717Z,3.93
2019-06-15T06:26:08.689Z,3.27
2019-06-15T06:28:35.606Z,3.13
2019-06-15T06:31:02.501Z,3.33
2019-06-15T06:33:29.285Z,3.30
2019-06-15T06:35:56.058Z,3.30
2019-06-15T06:38:22.973Z,3.10
2019-06-15T06:40:49.740Z,2.80
2019-06-15T06:43:16.561Z,2.90
2019-06-15T06:45:43.545Z,2.60
2019-06-15T06:48:10.522Z,2.60
2019-06-15T06:50:37.389Z,2.47
2019-06-15T06:53:04.269Z,2.33
2019-06-15T06:55:31.064Z,2.80
2019-06-15T06:57:57.877Z,2.50
2019-06-15T07:00:24.886Z,2.10
2019-06-15T07:02:51.690Z,2.80
2019-06-15T07:05:18.851Z,2.50
2019-06-15T07:07:45.873Z,2.80
2019-06-15T07:10:12.877Z,2.60
2019-06-15T07:12:39.704Z,2.50
2019-06-15T07:15:07.227Z,2.97
2019-06-15T07:17:34.117Z,2.80
2019-06-15T07:20:01.045Z,2.40
2019-06-15T07:22:27.854Z,3.00
2019-06-15T07:24:54.658Z,2.27
2019-06-15T07:27:21.656Z,2.50
2019-06-15T07:29:48.488Z,2.77
2019-06-15T07:32:15.519Z,2.30
2019-06-15T07:34:42.343Z,1.90
2019-06-15T07:37:09.221Z,2.17
2019-06-15T07:39:36.042Z,1.60
2019-06-15T07:42:02.950Z,1.43
2019-06-15T07:44:29.961Z,1.57
2019-06-15T07:46:56.860Z,1.70
2019-06-15T07:49:23.650Z,1.40
2019-06-15T07:51:50.475Z,1.33
2019-06-15T07:54:17.342Z,1.30
2019-06-15T07:56:44.122Z,1.30
2019-06-15T07:59:10.969Z,1.60
2019-06-15T08:01:37.884Z,1.30
2019-06-15T08:04:04.787Z,1.57
2019-06-15T08:06:31.627Z,1.20
2019-06-15T08:08:58.420Z,1.30
2019-06-15T08:11:25.345Z,1.57
2019-06-15T08:13:52.990Z,1.57
2019-06-15T08:16:19.817Z,1.20
2019-06-15T08:18:46.623Z,1.20
2019-06-15T08:21:13.464Z,1.30
2019-06-15T08:23:40.382Z,1.13
2019-06-15T08:26:07.170Z,1.20
2019-06-15T08:28:40.253Z,1.40
2019-06-15T08:31:02.990Z,1.47
2019-06-15T08:33:29.766Z,1.50
2019-06-15T08:35:56.590Z,1.20
2019-06-15T08:38:23.449Z,1.47
2019-06-15T08:40:50.274Z,1.30
2019-06-15T08:43:17.191Z,1.50
2019-06-15T08:45:44.077Z,1.60
2019-06-15T08:48:10.880Z,1.50
2019-06-15T08:50:37.902Z,1.37
2019-06-15T08:53:04.704Z,1.47
2019-06-15T08:55:31.518Z,1.30
2019-06-15T08:57:58.298Z,1.40
2019-06-15T09:00:25.287Z,1.50
2019-06-15T09:02:52.127Z,1.40
2019-06-15T09:05:19.310Z,1.20
2019-06-15T09:07:46.284Z,1.40
2019-06-15T09:10:13.602Z,2.10
2019-06-15T09:12:40.401Z,1.53
2019-06-15T09:15:07.801Z,1.55
2019-06-15T09:17:34.910Z,1.50
2019-06-15T09:20:01.891Z,1.30
2019-06-15T09:22:28.692Z,1.50
2019-06-15T09:24:55.514Z,1.37
2019-06-15T09:27:23.199Z,1.60
2019-06-15T09:29:53.379Z,1.40
2019-06-15T09:32:20.310Z,1.60
2019-06-15T09:34:47.090Z,1.55
2019-06-15T09:37:13.979Z,1.45
2019-06-15T09:39:40.831Z,1.60
2019-06-15T09:42:07.618Z,1.55
2019-06-15T09:44:34.403Z,1.45
2019-06-15T09:47:01.324Z,1.32
2019-06-15T09:49:28.304Z,1.80
2019-06-15T09:51:55.113Z,1.47
2019-06-15T09:54:21.972Z,1.50
2019-06-15T09:56:48.812Z,1.50
2019-06-15T09:59:25.611Z,1.40
2019-06-15T10:01:44.412Z,1.60
2019-06-15T10:04:11.181Z,1.35
2019-06-15T10:06:38.011Z,1.70
2019-06-15T10:09:05.586Z,1.60
2019-06-15T10:11:32.606Z,1.37
2019-06-15T10:13:59.385Z,1.50
2019-06-15T10:16:26.273Z,1.60
2019-06-15T10:18:53.177Z,1.52
2019-06-15T10:21:19.966Z,1.80
2019-06-15T10:23:46.774Z,2.00
2019-06-15T10:26:13.570Z,1.60
2019-06-15T10:28:40.359Z,1.75
2019-06-15T10:31:07.198Z,1.47
2019-06-15T10:33:34.111Z,1.82
2019-06-15T10:36:01.106Z,1.50
2019-06-15T10:38:27.924Z,1.62
2019-06-15T10:40:54.709Z,1.50
2019-06-15T10:43:21.516Z,1.75
2019-06-15T10:45:48.336Z,1.70
2019-06-15T10:48:15.214Z,1.80
2019-06-15T10:50:42.037Z,1.73
2019-06-15T10:53:08.925Z,1.70
2019-06-15T10:55:35.734Z,1.53
2019-06-15T10:58:02.661Z,2.10
2019-06-15T11:00:29.757Z,2.00
2019-06-15T11:02:56.636Z,1.67
2019-06-15T11:05:23.560Z,1.60
2019-06-15T11:07:50.355Z,2.00
2019-06-15T11:10:37.354Z,2.07
2019-06-15T11:13:04.259Z,2.20
2019-06-15T11:15:32.040Z,2.20
2019-06-15T11:17:59.978Z,2.70
2019-06-15T11:20:26.870Z,2.40
2019-06-15T11:22:53.650Z,2.67
2019-06-15T11:25:20.734Z,2.43
2019-06-15T11:27:47.526Z,2.40
2019-06-15T11:30:14.811Z,2.50
2019-06-15T11:32:41.770Z,2.43
2019-06-15T11:35:08.881Z,2.90
2019-06-15T11:37:35.665Z,2.93
2019-06-15T11:40:02.833Z,2.70
2019-06-15T11:42:29.631Z,3.00
2019-06-15T11:44:56.434Z,3.30
2019-06-15T11:47:23.325Z,3.70
2019-06-15T11:49:50.235Z,3.37
2019-06-15T11:52:17.080Z,3.13
2019-06-15T11:54:43.882Z,3.83
2019-06-15T11:57:10.791Z,4.07
2019-06-15T11:59:37.786Z,3.20
2019-06-15T12:02:04.655Z,3.57
2019-06-15T12:04:31.442Z,3.70
2019-06-15T12:06:58.245Z,3.30
2019-06-15T12:09:25.042Z,3.20
2019-06-15T12:11:51.821Z,2.80
2019-06-15T12:14:18.621Z,2.63
2019-06-15T12:16:45.405Z,3.03
2019-06-15T12:19:12.173Z,3.30
2019-06-15T12:21:38.962Z,3.40
2019-06-15T12:24:05.770Z,3.50
2019-06-15T12:26:32.686Z,4.10
2019-06-15T12:28:59.470Z,3.80
2019-06-15T12:31:26.362Z,3.97
2019-06-15T12:33:53.179Z,3.83
2019-06-15T12:36:19.966Z,3.90
2019-06-15T12:38:46.730Z,4.40
2019-06-15T12:41:13.645Z,4.23
2019-06-15T12:43:40.419Z,3.47
2019-06-15T12:46:07.302Z,4.73
2019-06-15T12:48:34.219Z,4.00
2019-06-15T12:51:01.005Z,4.20
2019-06-15T12:53:27.782Z,4.07
2019-06-15T12:55:54.715Z,4.40
2019-06-15T12:58:21.526Z,4.47
2019-06-15T13:01:01.717Z,4.17
2019-06-15T13:03:17.032Z,5.00
2019-06-15T13:05:43.944Z,4.57
2019-06-15T13:08:10.923Z,5.27
2019-06-15T13:10:37.737Z,5.97
2019-06-15T13:13:04.621Z,6.00
2019-06-15T13:15:31.598Z,6.33
2019-06-15T13:17:59.552Z,7.00
2019-06-15T13:20:28.458Z,6.60
2019-06-15T13:22:55.268Z,7.67
2019-06-15T13:25:22.161Z,6.93
2019-06-15T13:27:48.948Z,6.53
2019-06-15T13:30:18.346Z,6.03
2019-06-15T13:32:45.298Z,6.13
2019-06-15T13:35:12.118Z,6.47
2019-06-15T13:37:42.282Z,5.50
2019-06-15T13:40:08.002Z,6.40
2019-06-15T13:42:34.789Z,6.30
2019-06-15T13:45:01.731Z,6.57
2019-06-15T13:47:28.574Z,5.77
2019-06-15T13:49:55.433Z,5.73
2019-06-15T13:52:22.254Z,6.17
2019-06-15T13:54:49.055Z,7.23
2019-06-15T13:57:15.831Z,6.13
2019-06-15T13:59:42.646Z,6.00
2019-06-15T14:02:09.526Z,5.70
2019-06-15T14:04:36.320Z,5.50
2019-06-15T14:07:03.245Z,6.03
2019-06-15T14:09:30.139Z,5.30
2019-06-15T14:11:56.911Z,4.63
2019-06-15T14:14:23.711Z,4.80
2019-06-15T14:16:50.539Z,5.17
2019-06-15T14:19:17.383Z,5.40
2019-06-15T14:21:44.181Z,5.30
2019-06-15T14:24:11.121Z,5.20
2019-06-15T14:26:37.935Z,4.97
2019-06-15T14:29:04.865Z,4.77
2019-06-15T14:31:31.646Z,5.33
2019-06-15T14:33:58.583Z,4.77
2019-06-15T14:36:25.470Z,4.93
2019-06-15T14:38:52.259Z,4.43
2019-06-15T14:41:19.190Z,4.70
2019-06-15T14:43:45.966Z,4.10
2019-06-15T14:46:12.752Z,3.10
2019-06-15T14:48:39.553Z,4.03
2019-06-15T14:51:06.342Z,5.10
2019-06-15T14:53:33.143Z,4.57
2019-06-15T14:55:59.986Z,5.17
2019-06-15T14:58:26.858Z,5.17
2019-06-15T15:00:53.780Z,4.90
2019-06-15T15:03:20.598Z,4.27
2019-06-15T15:05:47.474Z,4.77
2019-06-15T15:08:14.510Z,5.53
2019-06-15T15:10:41.455Z,5.23
2019-06-15T15:13:08.339Z,5.33
2019-06-15T15:15:36.425Z,5.13
2019-06-15T15:18:03.647Z,5.70
2019-06-15T15:20:30.594Z,4.97
2019-06-15T15:22:57.477Z,6.53
2019-06-15T15:25:26.287Z,6.70
2019-06-15T15:27:52.989Z,6.77
2019-06-15T15:30:28.763Z,6.30
2019-06-15T15:32:57.181Z,6.43
2019-06-15T15:35:26.637Z,5.70
2019-06-15T15:37:52.959Z,4.93
2019-06-15T15:40:19.842Z,4.97
2019-06-15T15:42:46.732Z,4.40
2019-06-15T15:45:14.103Z,3.83
2019-06-15T15:47:44.297Z,4.17
2019-06-15T15:50:11.283Z,4.30
2019-06-15T15:52:38.092Z,5.30
2019-06-15T15:55:06.661Z,5.37
2019-06-15T15:57:36.137Z,4.97
2019-06-15T16:00:03.047Z,6.00
2019-06-15T16:02:44.555Z,6.63
2019-06-15T16:04:58.622Z,5.70
2019-06-15T16:07:27.894Z,7.23
2019-06-15T16:09:54.225Z,7.23
2019-06-15T16:12:21.102Z,7.93
2019-06-15T16:14:47.882Z,7.67
2019-06-15T16:17:14.673Z,6.93
2019-06-15T16:19:41.556Z,5.67
2019-06-15T16:22:08.586Z,6.00
2019-06-15T16:24:37.499Z,5.83
2019-06-15T16:27:04.254Z,5.43
2019-06-15T16:29:31.040Z,5.03
2019-06-15T16:31:57.850Z,6.00
2019-06-15T16:34:26.831Z,5.60
2019-06-15T16:36:53.438Z,5.13
2019-06-15T16:39:20.461Z,4.93
2019-06-15T16:41:47.349Z,5.27
2019-06-15T16:44:14.139Z,4.87
2019-06-15T16:46:40.966Z,4.80
2019-06-15T16:49:07.766Z,5.10
2019-06-15T16:51:36.122Z,5.43
2019-06-15T16:54:06.138Z,5.60
2019-06-15T16:56:32.173Z,5.17
2019-06-15T16:58:58.999Z,4.50
2019-06-15T17:01:27.544Z,4.30
2019-06-15T17:03:56.770Z,4.73
2019-06-15T17:06:23.280Z,4.60
2019-06-15T17:08:50.115Z,4.00
2019-06-15T17:11:17.451Z,4.33
2019-06-15T17:13:44.504Z,3.90
2019-06-15T17:16:11.295Z,4.63
2019-06-15T17:18:38.123Z,3.60
2019-06-15T17:21:07.123Z,4.10
2019-06-15T17:23:33.706Z,3.67
2019-06-15T17:26:00.573Z,2.80
2019-06-15T17:28:27.388Z,3.43
2019-06-15T17:30:56.235Z,4.10
2019-06-15T17:33:34.212Z,4.00
2019-06-15T17:36:02.187Z,3.83
2019-06-15T17:38:23.175Z,3.47
2019-06-15T17:40:50.214Z,4.27
2019-06-15T17:43:17.115Z,4.07
2019-06-15T17:45:46.539Z,3.87
2019-06-15T17:48:12.854Z,3.90
2019-06-15T17:50:41.242Z,3.63
2019-06-15T17:53:08.229Z,3.60
2019-06-15T17:55:36.688Z,4.47
2019-06-15T17:58:06.329Z,4.13
2019-06-15T18:00:41.220Z,3.97
2019-06-15T18:03:08.643Z,3.60
2019-06-15T18:05:36.958Z,3.57
2019-06-15T18:08:06.535Z,3.40
2019-06-15T18:10:32.892Z,4.63
2019-06-15T18:12:59.766Z,4.93
2019-06-15T18:15:26.826Z,4.10
2019-06-15T18:17:53.631Z,4.03
2019-06-15T18:20:22.714Z,4.40
2019-06-15T18:22:49.722Z,4.43
2019-06-15T18:25:16.501Z,4.30
2019-06-15T18:27:43.305Z,5.00
2019-06-15T18:30:10.509Z,4.83
2019-06-15T18:32:38.009Z,4.40
2019-06-15T18:35:06.125Z,5.17
2019-06-15T18:37:33.199Z,5.00
2019-06-15T18:39:59.993Z,5.60
2019-06-15T18:42:26.806Z,6.60
2019-06-15T18:44:56.062Z,6.17
2019-06-15T18:47:22.286Z,5.77
2019-06-15T18:49:49.118Z,6.37
2019-06-15T18:52:17.098Z,5.97
2019-06-15T18:54:46.546Z,6.47
2019-06-15T18:57:12.830Z,5.97
2019-06-15T18:59:39.733Z,5.63
2019-06-15T19:02:06.759Z,5.53
2019-06-15T19:04:33.742Z,5.20
2019-06-15T19:07:00.533Z,5.50
2019-06-15T19:09:27.330Z,5.70
2019-06-15T19:11:56.481Z,6.20
2019-06-15T19:14:22.878Z,6.60
2019-06-15T19:16:49.670Z,6.27
2019-06-15T19:19:17.092Z,6.70
2019-06-15T19:21:46.158Z,6.03
2019-06-15T19:24:13.067Z,5.80
2019-06-15T19:26:39.861Z,5.47
2019-06-15T19:29:06.676Z,4.93
2019-06-15T19:31:33.658Z,5.47
2019-06-15T19:34:00.480Z,5.03
2019-06-15T19:36:27.347Z,4.90
2019-06-15T19:38:54.187Z,4.87
2019-06-15T19:41:20.982Z,4.33
2019-06-15T19:43:47.782Z,4.43
2019-06-15T19:46:16.857Z,4.80
2019-06-15T19:48:46.166Z,4.50
2019-06-15T19:51:12.949Z,4.53
2019-06-15T19:53:39.862Z,4.30
2019-06-15T19:56:07.028Z,4.07
2019-06-15T19:58:34.110Z,5.07
2019-06-15T20:01:01.176Z,4.50
2019-06-15T20:03:28.027Z,4.37
2019-06-15T20:05:56.831Z,4.60
2019-06-15T20:08:23.694Z,4.60
2019-06-15T20:10:50.585Z,4.13
2019-06-15T20:13:17.483Z,4.43
2019-06-15T20:15:46.697Z,5.30
2019-06-15T20:18:13.174Z,4.63
2019-06-15T20:20:40.015Z,4.03
2019-06-15T20:23:07.442Z,4.57
2019-06-15T20:25:36.769Z,5.07
2019-06-15T20:28:03.331Z,4.00
2019-06-15T20:30:30.142Z,4.17
2019-06-15T20:32:56.977Z,4.90
2019-06-15T20:35:26.182Z,5.17
2019-06-15T20:37:52.497Z,4.90
2019-06-15T20:40:19.615Z,4.67
2019-06-15T20:42:46.497Z,4.77
2019-06-15T20:45:14.397Z,4.47
2019-06-15T20:47:41.274Z,4.33
2019-06-15T20:50:24.365Z,4.97
2019-06-15T20:52:37.501Z,4.53
2019-06-15T20:55:06.443Z,5.17
2019-06-15T20:57:33.242Z,4.70
2019-06-15T21:00:00.038Z,4.80
2019-06-15T21:02:27.110Z,4.60
2019-06-15T21:04:55.970Z,4.73
2019-06-15T21:07:22.949Z,5.00
2019-06-15T21:09:49.839Z,4.97
2019-06-15T21:12:16.728Z,5.40
2019-06-15T21:14:43.623Z,5.00
2019-06-15T21:17:10.515Z,6.30
2019-06-15T21:19:37.363Z,5.30
2019-06-15T21:22:06.300Z,5.67
2019-06-15T21:24:33.028Z,5.90
2019-06-15T21:26:59.844Z,5.60
2019-06-15T21:29:26.694Z,5.67
2019-06-15T21:31:53.590Z,5.37
2019-06-15T21:34:20.419Z,5.70
2019-06-15T21:36:47.278Z,6.13
2019-06-15T21:39:14.065Z,5.67
2019-06-15T21:41:40.859Z,5.47
2019-06-15T21:44:07.686Z,5.47
2019-06-15T21:46:36.144Z,5.70
2019-06-15T21:49:03.426Z,5.07
2019-06-15T21:51:30.266Z,5.43
2019-06-15T21:53:57.059Z,5.63
2019-06-15T21:56:26.757Z,5.60
2019-06-15T21:58:52.575Z,5.43
2019-06-15T22:01:37.069Z,5.70
2019-06-15T22:04:06.403Z,5.73
2019-06-15T22:06:32.774Z,5.60
2019-06-15T22:08:59.661Z,5.27
2019-06-15T22:11:26.742Z,5.40
2019-06-15T22:13:53.630Z,4.93
2019-06-15T22:16:20.439Z,5.00
2019-06-15T22:18:47.657Z,4.77
2019-06-15T22:21:16.130Z,4.73
2019-06-15T22:23:43.181Z,5.20
2019-06-15T22:26:10.007Z,4.80
2019-06-15T22:28:36.905Z,4.70
2019-06-15T22:31:06.438Z,5.03
2019-06-15T22:33:32.727Z,4.97
2019-06-15T22:35:59.625Z,4.03
2019-06-15T22:38:26.502Z,5.17
2019-06-15T22:40:53.429Z,5.00
2019-06-15T22:43:20.206Z,4.20
2019-06-15T22:45:49.862Z,4.53
2019-06-15T22:48:16.459Z,4.70
2019-06-15T22:50:43.621Z,4.73
2019-06-15T22:53:10.514Z,4.93
2019-06-15T22:55:37.338Z,4.60
2019-06-15T22:58:06.282Z,4.63
2019-06-15T23:00:33.941Z,4.90
2019-06-15T23:03:01.044Z,4.70
2019-06-15T23:05:27.845Z,4.40
2019-06-15T23:07:55.992Z,4.83
2019-06-15T23:10:23.029Z,5.20
2019-06-15T23:12:50.026Z,5.20
2019-06-15T23:15:17.534Z,5.07
2019-06-15T23:17:46.597Z,6.20
2019-06-15T23:20:16.903Z,5.57
2019-06-15T23:22:43.018Z,5.03
2019-06-15T23:25:09.861Z,5.33
2019-06-15T23:27:36.738Z,5.47
2019-06-15T23:30:06.588Z,5.63
2019-06-15T23:32:32.862Z,5.43
2019-06-15T23:34:59.696Z,5.13
2019-06-15T23:37:26.850Z,5.33
2019-06-15T23:40:11.862Z,5.40
2019-06-15T23:42:38.798Z,5.53
2019-06-15T23:45:06.847Z,5.73
2019-06-15T23:47:33.846Z,5.10
2019-06-15T23:50:00.766Z,5.57
2019-06-15T23:52:27.646Z,5.20
2019-06-15T23:54:56.879Z,6.27
2019-06-15T23:57:23.258Z,6.10
2019-06-15T23:59:50.169Z,6.27
